Time;durP1;ratioP1;P1;durP2;ratioP2;P2;SDS_P1;SDS_P2;PMS_P1;PMS_P2;Temp;Humidity;BMP_temperature;BMP_pressure;BME280_temperature;BME280_humidity;BME280_pressure;Samples;Min_cycle;Max_cycle;Signal;HPM_P1;HPM_P2
2023/05/16 00:01:06;;;;;;;9.83;8.87;;;10.90;99.90;;;;;;5088779;28;20556;-65
2023/05/16 00:03:36;;;;;;;8.90;8.00;;;10.80;99.90;;;;;;5099569;28;20928;-65
2023/05/16 00:06:04;;;;;;;9.53;8.53;;;10.70;99.90;;;;;;5099510;28;20434;-65
2023/05/16 00:08:32;;;;;;;10.70;8.50;;;10.50;99.90;;;;;;5100225;28;20606;-65
2023/05/16 00:10:59;;;;;;;11.03;8.77;;;10.50;99.90;;;;;;5099522;28;20496;-64
2023/05/16 00:13:26;;;;;;;11.00;9.27;;;10.50;99.90;;;;;;5100160;28;20960;-64
2023/05/16 00:15:55;;;;;;;11.47;8.90;;;10.40;99.90;;;;;;5100353;28;20621;-64
2023/05/16 00:18:24;;;;;;;9.73;8.73;;;10.40;99.90;;;;;;5100983;28;20469;-63
2023/05/16 00:20:54;;;;;;;8.43;7.10;;;10.40;99.90;;;;;;5100584;28;20439;-64
2023/05/16 00:23:21;;;;;;;10.97;8.50;;;10.40;99.90;;;;;;5100837;28;20912;-64
2023/05/16 00:25:49;;;;;;;10.83;7.43;;;10.30;99.90;;;;;;5100810;28;20513;-64
2023/05/16 00:28:16;;;;;;;9.93;7.60;;;10.40;99.90;;;;;;5100833;28;20468;-64
2023/05/16 00:30:43;;;;;;;9.20;8.20;;;10.30;99.90;;;;;;5100025;28;20877;-64
2023/05/16 00:33:11;;;;;;;8.50;7.60;;;10.30;99.90;;;;;;5100507;28;20808;-64
2023/05/16 00:35:38;;;;;;;9.60;8.43;;;10.30;99.90;;;;;;5100287;28;20463;-64
2023/05/16 00:38:06;;;;;;;9.80;8.13;;;10.30;99.90;;;;;;5100454;28;20460;-64
2023/05/16 00:40:33;;;;;;;9.63;8.20;;;10.30;99.90;;;;;;5100352;28;20756;-63
2023/05/16 00:43:01;;;;;;;10.67;9.23;;;10.30;99.90;;;;;;5100074;28;20868;-64
2023/05/16 00:45:28;;;;;;;8.80;7.90;;;10.20;99.90;;;;;;5100105;28;20881;-62
2023/05/16 00:47:55;;;;;;;9.87;8.87;;;10.20;99.90;;;;;;5100656;28;20704;-62
2023/05/16 00:50:22;;;;;;;13.63;8.60;;;10.20;99.90;;;;;;5100449;28;20456;-62
2023/05/16 00:52:50;;;;;;;9.50;7.90;;;10.20;99.90;;;;;;5100302;28;20500;-61
2023/05/16 00:55:19;;;;;;;8.73;7.50;;;10.30;99.90;;;;;;5100504;28;20464;-60
2023/05/16 00:57:46;;;;;;;10.30;7.80;;;10.10;99.90;;;;;;5100727;28;20781;-60
2023/05/16 01:00:15;;;;;;;7.70;6.57;;;10.00;99.90;;;;;;5100789;28;20467;-58
2023/05/16 01:02:43;;;;;;;7.60;6.13;;;10.00;99.90;;;;;;5099705;28;20852;-61
2023/05/16 01:05:10;;;;;;;6.97;6.07;;;9.80;99.90;;;;;;5099240;28;20470;-61
2023/05/16 01:07:38;;;;;;;5.80;5.30;;;9.90;99.90;;;;;;5099852;28;20464;-62
2023/05/16 01:10:07;;;;;;;6.40;5.70;;;9.90;99.90;;;;;;5099989;28;20471;-61
2023/05/16 01:12:41;;;;;;;6.50;5.80;;;9.90;99.90;;;;;;5099659;28;20492;-61
2023/05/16 01:15:12;;;;;;;6.27;5.20;;;9.90;99.90;;;;;;5099939;28;20650;-61
2023/05/16 01:17:51;;;;;;;5.70;4.90;;;10.00;99.90;;;;;;5100200;28;20465;-61
2023/05/16 01:20:29;;;;;;;5.33;4.73;;;9.90;99.90;;;;;;5099749;28;20459;-61
2023/05/16 01:23:19;;;;;;;6.03;5.43;;;9.80;99.90;;;;;;5099835;28;20484;-60
2023/05/16 01:25:58;;;;;;;6.20;5.17;;;9.80;99.90;;;;;;5100242;28;20503;-60
2023/05/16 01:28:27;;;;;;;5.87;4.90;;;9.80;99.90;;;;;;5100293;28;20881;-61
2023/05/16 01:30:54;;;;;;;6.00;5.20;;;9.80;99.90;;;;;;5099741;28;20463;-61
2023/05/16 01:33:22;;;;;;;5.20;4.70;;;9.70;99.90;;;;;;5099573;28;20806;-61
2023/05/16 01:35:55;;;;;;;5.03;4.53;;;9.60;99.90;;;;;;5099493;28;20983;-61
2023/05/16 01:38:26;;;;;;;4.97;4.47;;;9.50;99.90;;;;;;5099417;28;20456;-61
2023/05/16 01:41:09;;;;;;;4.60;4.07;;;9.50;99.90;;;;;;5099652;28;20875;-64
2023/05/16 01:43:48;;;;;;;4.63;4.23;;;9.50;99.90;;;;;;5099449;28;20488;-61
2023/05/16 01:46:24;;;;;;;4.40;4.00;;;9.40;99.90;;;;;;5099789;28;20460;-61
2023/05/16 01:48:58;;;;;;;4.53;4.13;;;9.40;99.90;;;;;;5098820;28;20467;-62
2023/05/16 01:51:29;;;;;;;4.47;4.00;;;9.40;99.90;;;;;;5099416;28;20464;-61
2023/05/16 01:54:00;;;;;;;4.00;3.50;;;9.40;99.90;;;;;;5099551;28;20503;-61
2023/05/16 01:56:29;;;;;;;7.27;4.30;;;9.40;99.90;;;;;;5100019;28;20464;-60
2023/05/16 01:59:05;;;;;;;6.97;5.20;;;9.40;99.90;;;;;;5099154;28;20456;-61
2023/05/16 02:01:32;;;;;;;6.87;6.27;;;9.30;99.90;;;;;;5099398;28;20470;-61
2023/05/16 02:04:00;;;;;;;6.93;6.23;;;9.30;99.90;;;;;;5099226;28;20467;-60
2023/05/16 02:06:27;;;;;;;9.80;8.90;;;9.40;99.90;;;;;;5099696;28;20446;-60
2023/05/16 02:08:54;;;;;;;8.83;7.93;;;9.20;99.90;;;;;;5099249;28;20896;-60
2023/05/16 02:11:22;;;;;;;8.60;7.63;;;9.20;99.90;;;;;;5099068;28;20464;-60
2023/05/16 02:13:49;;;;;;;8.63;7.83;;;9.10;99.90;;;;;;5099633;28;20435;-61
2023/05/16 02:16:18;;;;;;;7.70;6.90;;;9.10;99.90;;;;;;5099202;28;20488;-60
2023/05/16 02:18:48;;;;;;;7.83;6.77;;;9.10;99.90;;;;;;5099019;28;20464;-59
2023/05/16 02:21:15;;;;;;;7.17;6.47;;;9.00;99.90;;;;;;5099636;28;20460;-59
2023/05/16 02:23:45;;;;;;;6.77;5.20;;;9.10;99.90;;;;;;5099274;28;20616;-59
2023/05/16 02:26:12;;;;;;;5.37;4.10;;;9.00;99.90;;;;;;5099556;28;20459;-60
2023/05/16 02:28:39;;;;;;;9.43;4.77;;;8.80;99.90;;;;;;5098971;28;20813;-60
2023/05/16 02:31:08;;;;;;;6.83;4.70;;;8.80;99.90;;;;;;5099429;28;20464;-63
2023/05/16 02:33:40;;;;;;;7.97;4.40;;;8.90;99.90;;;;;;5099233;28;20488;-61
2023/05/16 02:36:07;;;;;;;7.43;5.07;;;8.70;99.90;;;;;;5098992;28;20462;-61
2023/05/16 02:38:35;;;;;;;6.83;4.50;;;8.50;99.90;;;;;;5098424;28;20726;-61
2023/05/16 02:41:04;;;;;;;6.50;4.50;;;8.40;99.90;;;;;;5098144;28;20786;-61
2023/05/16 02:43:32;;;;;;;9.30;4.77;;;8.20;99.90;;;;;;5098508;28;20530;-62
2023/05/16 02:45:59;;;;;;;9.07;4.73;;;8.20;99.90;;;;;;5097856;28;20460;-61
2023/05/16 02:48:26;;;;;;;6.53;4.70;;;8.20;99.90;;;;;;5098055;28;20445;-62
2023/05/16 02:50:55;;;;;;;9.60;5.33;;;8.20;99.90;;;;;;5098312;28;20496;-62
2023/05/16 02:53:22;;;;;;;9.20;5.37;;;8.20;99.90;;;;;;5097900;28;20467;-63
2023/05/16 02:55:49;;;;;;;10.50;5.60;;;8.20;99.90;;;;;;5097591;28;20440;-62
2023/05/16 02:58:16;;;;;;;15.53;5.90;;;8.20;99.90;;;;;;5098003;28;20437;-63
2023/05/16 03:00:44;;;;;;;11.20;5.90;;;8.30;99.90;;;;;;5097030;28;20836;-62
2023/05/16 03:03:11;;;;;;;8.10;5.83;;;8.20;99.90;;;;;;5096410;28;20848;-62
2023/05/16 03:05:38;;;;;;;6.93;6.10;;;8.30;99.90;;;;;;5095640;28;20463;-62
2023/05/16 03:08:06;;;;;;;8.17;5.70;;;8.20;99.90;;;;;;5095981;28;20717;-62
2023/05/16 03:10:34;;;;;;;12.70;6.70;;;8.10;99.90;;;;;;5095737;28;20463;-62
2023/05/16 03:13:01;;;;;;;11.07;7.27;;;8.10;99.90;;;;;;5096289;28;20491;-62
2023/05/16 03:15:28;;;;;;;11.90;7.70;;;8.20;99.90;;;;;;5096210;28;20465;-62
2023/05/16 03:17:55;;;;;;;15.77;7.80;;;8.10;99.90;;;;;;5095733;28;20460;-62
2023/05/16 03:20:22;;;;;;;11.87;8.80;;;8.10;99.90;;;;;;5096760;28;20438;-62
2023/05/16 03:22:49;;;;;;;21.23;10.00;;;8.20;99.90;;;;;;5096259;28;20463;-62
2023/05/16 03:25:18;;;;;;;18.57;10.23;;;8.20;99.90;;;;;;5095959;28;20460;-62
2023/05/16 03:27:45;;;;;;;17.80;9.33;;;8.30;99.90;;;;;;5095744;28;20457;-62
2023/05/16 03:30:13;;;;;;;12.10;8.17;;;8.20;99.90;;;;;;5096024;28;20567;-62
2023/05/16 03:32:40;;;;;;;10.07;8.00;;;8.20;99.90;;;;;;5095810;28;20554;-62
2023/05/16 03:35:08;;;;;;;13.27;6.90;;;8.20;99.90;;;;;;5096199;28;20468;-63
2023/05/16 03:37:36;;;;;;;16.57;7.20;;;8.20;99.90;;;;;;5097280;28;20460;-62
2023/05/16 03:40:04;;;;;;;14.63;7.77;;;8.10;99.90;;;;;;5097274;28;20435;-62
2023/05/16 03:42:33;;;;;;;16.03;7.20;;;8.10;99.90;;;;;;5097281;28;20461;-62
2023/05/16 03:45:00;;;;;;;15.23;9.63;;;8.20;99.90;;;;;;5097447;28;20457;-62
2023/05/16 03:47:30;;;;;;;14.53;6.53;;;8.10;99.90;;;;;;5097209;28;20891;-63
2023/05/16 03:49:57;;;;;;;10.70;6.47;;;8.10;99.90;;;;;;5097127;28;20462;-63
2023/05/16 03:52:24;;;;;;;17.40;9.40;;;8.10;99.90;;;;;;5097296;28;20467;-62
2023/05/16 03:54:51;;;;;;;14.00;7.87;;;8.10;99.90;;;;;;5097118;28;20466;-63
2023/05/16 03:57:18;;;;;;;16.60;8.47;;;8.10;99.90;;;;;;5097310;28;20464;-63
2023/05/16 03:59:47;;;;;;;17.67;10.77;;;8.10;99.90;;;;;;5097182;28;20741;-63
2023/05/16 04:02:14;;;;;;;19.87;9.33;;;8.10;99.90;;;;;;5096462;28;20481;-63
2023/05/16 04:04:42;;;;;;;19.43;10.20;;;8.10;99.90;;;;;;5096610;28;20456;-63
2023/05/16 04:07:09;;;;;;;17.70;9.93;;;8.10;99.90;;;;;;5097039;28;20460;-63
2023/05/16 04:09:36;;;;;;;18.60;9.60;;;8.00;99.90;;;;;;5096756;28;20456;-63
2023/05/16 04:12:03;;;;;;;14.80;8.13;;;8.00;99.90;;;;;;5096853;28;20499;-63
2023/05/16 04:14:30;;;;;;;14.40;8.57;;;8.00;99.90;;;;;;5097511;28;20904;-63
2023/05/16 04:16:59;;;;;;;13.90;7.87;;;7.90;99.90;;;;;;5097549;28;20456;-63
2023/05/16 04:19:26;;;;;;;14.67;6.80;;;7.90;99.90;;;;;;5097591;28;20464;-63
2023/05/16 04:21:53;;;;;;;17.07;7.80;;;8.00;99.90;;;;;;5097940;28;20759;-63
2023/05/16 04:24:25;;;;;;;14.03;6.83;;;8.00;99.90;;;;;;5097643;28;20457;-63
2023/05/16 04:26:52;;;;;;;19.50;7.87;;;8.00;99.90;;;;;;5098116;28;20474;-63
2023/05/16 04:29:20;;;;;;;16.27;7.23;;;8.00;99.90;;;;;;5097124;28;20563;-63
2023/05/16 04:31:47;;;;;;;14.20;6.67;;;8.00;99.90;;;;;;5098340;28;20464;-63
2023/05/16 04:34:16;;;;;;;16.97;6.67;;;7.80;99.90;;;;;;5098025;28;20499;-63
2023/05/16 04:36:44;;;;;;;13.70;6.10;;;7.80;99.90;;;;;;5098091;28;20471;-63
2023/05/16 04:39:13;;;;;;;14.80;5.27;;;7.80;99.90;;;;;;5098537;28;20460;-63
2023/05/16 04:41:41;;;;;;;20.10;6.00;;;7.70;99.90;;;;;;5101730;28;20811;-63
2023/05/16 04:44:14;;;;;;;15.00;6.20;;;7.60;99.90;;;;;;5102187;28;20431;-63
2023/05/16 04:46:41;;;;;;;12.70;5.83;;;7.60;99.90;;;;;;5102036;28;20466;-63
2023/05/16 04:49:10;;;;;;;11.57;6.27;;;7.50;99.90;;;;;;5101941;28;20462;-63
2023/05/16 04:51:38;;;;;;;13.70;5.40;;;7.60;99.90;;;;;;5100988;28;20457;-63
2023/05/16 04:54:06;;;;;;;12.37;6.23;;;7.60;99.90;;;;;;5101368;28;20948;-63
2023/05/16 04:56:34;;;;;;;12.37;6.60;;;7.50;99.90;;;;;;5101037;28;20460;-63
2023/05/16 04:59:01;;;;;;;13.80;6.20;;;7.60;99.90;;;;;;5100707;28;20491;-63
2023/05/16 05:01:28;;;;;;;17.60;6.17;;;7.50;99.90;;;;;;5099749;28;20518;-63
2023/05/16 05:03:55;;;;;;;25.53;6.97;;;7.50;99.90;;;;;;5100288;28;20486;-65
2023/05/16 05:06:25;;;;;;;16.00;6.20;;;7.40;99.90;;;;;;5101075;28;20473;-63
2023/05/16 05:08:54;;;;;;;15.33;5.93;;;7.40;99.90;;;;;;5100789;28;20954;-63
2023/05/16 05:11:22;;;;;;;14.77;5.67;;;7.50;99.90;;;;;;5100134;28;20464;-63
2023/05/16 05:13:49;;;;;;;19.30;7.30;;;7.50;99.90;;;;;;5100156;28;20579;-64
2023/05/16 05:16:16;;;;;;;13.10;6.53;;;7.40;99.90;;;;;;5101316;28;20464;-63
2023/05/16 05:18:43;;;;;;;13.00;6.30;;;7.50;99.90;;;;;;5100441;28;20471;-64
2023/05/16 05:21:11;;;;;;;17.73;7.23;;;7.50;99.90;;;;;;5100598;28;20471;-64
2023/05/16 05:23:38;;;;;;;18.20;6.77;;;7.60;99.90;;;;;;5098362;28;20468;-63
2023/05/16 05:26:06;;;;;;;13.90;5.80;;;7.70;99.90;;;;;;5099972;28;20570;-64
2023/05/16 05:28:34;;;;;;;16.77;7.13;;;7.70;99.90;;;;;;5099768;28;20858;-63
2023/05/16 05:31:01;;;;;;;20.13;5.83;;;7.70;99.90;;;;;;5092976;28;20472;-63
2023/05/16 05:33:28;;;;;;;12.60;6.50;;;7.90;99.90;;;;;;5098944;28;20489;-63
2023/05/16 05:35:55;;;;;;;13.77;6.20;;;7.90;99.90;;;;;;5098062;28;20461;-63
2023/05/16 05:38:22;;;;;;;10.00;5.07;;;7.90;1.00;;;;;;5090783;28;20766;-63
2023/05/16 05:40:50;;;;;;;15.87;5.00;;;7.90;99.90;;;;;;5093956;28;20453;-63
2023/05/16 05:43:18;;;;;;;12.33;5.47;;;8.00;99.90;;;;;;5096680;28;20488;-63
2023/05/16 05:45:45;;;;;;;14.30;5.63;;;8.00;1.00;;;;;;5091626;28;20781;-63
2023/05/16 05:48:13;;;;;;;12.43;5.97;;;7.90;48.40;;;;;;5095055;28;20461;-63
2023/05/16 05:50:40;;;;;;;13.27;5.60;;;8.10;1.00;;;;;;5078745;28;20473;-63
2023/05/16 05:53:07;;;;;;;11.23;5.83;;;8.30;99.90;;;;;;5075596;28;20540;-63
2023/05/16 05:55:35;;;;;;;9.73;5.23;;;8.50;1.00;;;;;;5096279;28;20460;-63
2023/05/16 05:58:02;;;;;;;13.20;4.63;;;8.60;99.90;;;;;;5094500;28;20456;-63
2023/05/16 06:00:30;;;;;;;10.33;4.30;;;8.90;1.00;;;;;;5094714;28;20901;-64
2023/05/16 06:02:58;;;;;;;10.30;3.90;;;9.00;99.90;;;;;;5095594;28;20484;-64
2023/05/16 06:05:25;;;;;;;14.40;4.60;;;9.10;99.90;;;;;;5095612;28;20880;-64
2023/05/16 06:07:52;;;;;;;9.57;4.50;;;9.10;1.00;;;;;;5094688;28;20531;-64
2023/05/16 06:10:19;;;;;;;10.20;4.80;;;9.10;99.90;;;;;;5093988;28;20881;-64
2023/05/16 06:12:47;;;;;;;18.43;4.90;;;9.20;29.50;;;;;;5094251;28;20464;-64
2023/05/16 06:15:14;;;;;;;12.27;4.53;;;9.60;1.00;;;;;;5095672;28;20456;-64
2023/05/16 06:17:42;;;;;;;10.83;4.20;;;9.40;1.00;;;;;;5095543;28;20873;-64
2023/05/16 06:20:10;;;;;;;10.53;3.60;;;9.50;1.00;;;;;;5095006;28;20465;-65
2023/05/16 06:22:37;;;;;;;11.97;4.00;;;9.20;1.00;;;;;;5095546;28;20554;-65
2023/05/16 06:25:05;;;;;;;8.30;4.00;;;9.30;1.00;;;;;;5095920;28;20467;-64
2023/05/16 06:27:32;;;;;;;13.10;4.90;;;9.50;1.00;;;;;;5096140;28;20872;-64
2023/05/16 06:29:59;;;;;;;9.70;3.73;;;9.30;1.00;;;;;;5097701;28;20483;-64
2023/05/16 06:32:27;;;;;;;10.17;3.80;;;9.70;1.00;;;;;;5097488;28;20521;-64
2023/05/16 06:34:55;;;;;;;12.30;4.60;;;9.80;1.00;;;;;;5097179;28;20491;-64
2023/05/16 06:37:24;;;;;;;12.90;3.80;;;10.10;1.00;;;;;;5097559;28;20468;-64
2023/05/16 06:39:52;;;;;;;6.77;3.60;;;10.20;1.00;;;;;;5097734;28;20521;-64
2023/05/16 06:42:19;;;;;;;17.33;4.60;;;10.00;1.00;;;;;;5097554;28;20555;-64
2023/05/16 06:44:47;;;;;;;9.37;3.67;;;10.20;1.00;;;;;;5097280;28;20452;-64
2023/05/16 06:47:14;;;;;;;10.60;5.43;;;9.90;1.00;;;;;;5095169;28;20496;-65
2023/05/16 06:49:41;;;;;;;12.17;4.37;;;9.40;1.00;;;;;;5095863;28;20460;-65
2023/05/16 06:52:10;;;;;;;14.27;3.80;;;9.80;1.00;;;;;;5094927;28;20472;-64
2023/05/16 06:54:37;;;;;;;10.97;4.57;;;10.00;1.00;;;;;;5094735;28;20467;-64
2023/05/16 06:57:07;;;;;;;11.73;4.10;;;10.10;1.00;;;;;;5094765;28;20732;-64
2023/05/16 06:59:34;;;;;;;7.50;4.00;;;10.50;1.00;;;;;;5094718;28;20563;-64
2023/05/16 07:02:01;;;;;;;9.53;4.17;;;11.10;1.00;;;;;;5093912;28;20546;-64
2023/05/16 07:04:29;;;;;;;15.20;4.13;;;11.50;99.90;;;;;;5094479;28;20569;-62
2023/05/16 07:06:56;;;;;;;11.13;3.83;;;11.20;99.90;;;;;;5094169;28;20491;-62
2023/05/16 07:09:25;;;;;;;11.70;4.37;;;9.90;99.90;;;;;;5094000;28;20464;-62
2023/05/16 07:11:52;;;;;;;12.87;3.87;;;9.90;99.90;;;;;;5094032;28;20566;-62
2023/05/16 07:14:19;;;;;;;15.90;4.23;;;9.80;99.90;;;;;;5094703;28;20488;-62
2023/05/16 07:16:46;;;;;;;10.43;4.33;;;9.50;99.90;;;;;;5094273;28;20762;-62
2023/05/16 07:19:13;;;;;;;14.90;3.80;;;9.30;99.90;;;;;;5095969;28;20514;-62
2023/05/16 07:21:40;;;;;;;9.60;3.10;;;9.20;99.90;;;;;;5095202;28;20551;-62
2023/05/16 07:24:08;;;;;;;9.23;3.73;;;9.20;99.90;;;;;;5095565;28;20891;-61
2023/05/16 07:26:36;;;;;;;10.63;4.07;;;9.30;99.90;;;;;;5096493;28;20465;-62
2023/05/16 07:29:04;;;;;;;9.13;3.23;;;9.60;99.90;;;;;;5096430;28;20463;-62
2023/05/16 07:31:31;;;;;;;12.73;4.00;;;9.60;99.90;;;;;;5095843;28;20853;-62
2023/05/16 07:33:58;;;;;;;14.20;3.97;;;9.80;99.90;;;;;;5095513;28;20998;-62
2023/05/16 07:36:25;;;;;;;8.13;3.63;;;10.10;99.90;;;;;;5095245;28;20897;-62
2023/05/16 07:38:52;;;;;;;7.93;3.47;;;10.50;99.90;;;;;;5094837;28;20473;-62
2023/05/16 07:41:20;;;;;;;8.63;2.63;;;10.20;99.90;;;;;;5095389;28;20457;-61
2023/05/16 07:43:49;;;;;;;11.10;3.63;;;10.00;99.90;;;;;;5090082;28;20447;-61
2023/05/16 07:46:16;;;;;;;8.30;4.50;;;10.30;99.90;;;;;;5095261;28;20896;-61
2023/05/16 07:48:43;;;;;;;9.73;3.67;;;10.80;99.90;;;;;;5095808;28;20467;-61
2023/05/16 07:51:10;;;;;;;9.23;3.30;;;11.80;99.90;;;;;;5096901;28;20466;-61
2023/05/16 07:53:37;;;;;;;14.93;3.87;;;12.20;99.90;;;;;;5096832;28;20787;-62
2023/05/16 07:56:05;;;;;;;7.23;3.27;;;12.60;99.90;;;;;;5097034;28;20816;-62
2023/05/16 07:58:32;;;;;;;5.73;2.77;;;12.80;99.90;;;;;;5096654;28;20464;-62
2023/05/16 08:01:01;;;;;;;7.70;3.13;;;12.90;99.90;;;;;;5097504;28;20709;-61
2023/05/16 08:03:28;;;;;;;7.60;4.00;;;13.50;99.90;;;;;;5096904;28;20590;-62
2023/05/16 08:05:56;;;;;;;10.70;3.10;;;13.10;99.90;;;;;;5095593;28;20466;-61
2023/05/16 08:08:23;;;;;;;8.43;3.67;;;12.10;99.90;;;;;;5095421;28;20470;-61
2023/05/16 08:10:50;;;;;;;5.63;2.90;;;12.70;99.90;;;;;;5095189;28;20463;-61
2023/05/16 08:13:17;;;;;;;5.70;3.60;;;12.40;99.90;;;;;;5095637;28;20529;-61
2023/05/16 08:15:45;;;;;;;6.70;3.20;;;12.40;99.90;;;;;;5099018;28;20499;-61
2023/05/16 08:18:15;;;;;;;6.00;2.67;;;12.00;99.90;;;;;;5098664;28;20792;-61
2023/05/16 08:20:42;;;;;;;5.30;2.70;;;11.40;99.90;;;;;;5098988;28;20464;-63
2023/05/16 08:23:09;;;;;;;8.50;3.00;;;11.30;99.90;;;;;;5100689;28;20466;-60
2023/05/16 08:25:36;;;;;;;5.63;3.10;;;11.40;99.90;;;;;;5098291;28;20460;-62
2023/05/16 08:28:04;;;;;;;5.30;2.80;;;11.20;99.90;;;;;;5098425;28;20589;-60
2023/05/16 08:30:31;;;;;;;6.10;2.60;;;11.40;99.90;;;;;;5097331;28;20655;-60
2023/05/16 08:32:58;;;;;;;4.37;3.03;;;11.90;99.90;;;;;;5097306;28;20460;-61
2023/05/16 08:35:26;;;;;;;4.50;2.63;;;12.00;99.90;;;;;;5096889;28;21027;-60
2023/05/16 08:37:53;;;;;;;4.03;2.63;;;12.10;99.90;;;;;;5097749;28;20521;-60
2023/05/16 08:40:22;;;;;;;5.40;2.47;;;12.90;99.90;;;;;;5098181;28;20452;-61
2023/05/16 08:42:49;;;;;;;6.27;2.70;;;13.10;99.90;;;;;;5097395;28;20460;-61
2023/05/16 08:45:16;;;;;;;4.47;2.60;;;13.60;99.90;;;;;;5098132;28;20460;-57
2023/05/16 08:47:45;;;;;;;9.17;2.40;;;13.30;99.90;;;;;;5100108;28;20466;-61
2023/05/16 08:50:12;;;;;;;5.33;2.77;;;13.30;99.90;;;;;;5100040;28;20460;-61
2023/05/16 08:52:43;;;;;;;6.30;3.00;;;13.40;99.90;;;;;;5100134;28;20908;-59
2023/05/16 08:55:11;;;;;;;7.60;3.40;;;12.80;99.90;;;;;;5099917;28;20488;-60
2023/05/16 08:57:39;;;;;;;6.53;3.33;;;12.40;99.90;;;;;;5099886;28;20460;-60
2023/05/16 09:00:10;;;;;;;5.73;2.73;;;12.00;99.90;;;;;;5099834;28;20495;-61
2023/05/16 09:02:39;;;;;;;5.00;2.60;;;11.60;99.90;;;;;;5099670;28;20970;-61
2023/05/16 09:05:08;;;;;;;5.90;2.57;;;11.80;99.90;;;;;;5100255;28;20456;-61
2023/05/16 09:07:36;;;;;;;6.90;2.60;;;12.30;99.90;;;;;;5099629;28;20452;-59
2023/05/16 09:10:06;;;;;;;6.33;2.50;;;12.00;99.90;;;;;;5099016;28;20554;-58
2023/05/16 09:12:33;;;;;;;5.70;2.50;;;11.90;99.90;;;;;;5099247;28;20487;-60
2023/05/16 09:15:02;;;;;;;6.43;2.93;;;11.50;99.90;;;;;;5100189;28;20523;-59
2023/05/16 09:17:35;;;;;;;6.47;2.30;;;11.80;99.90;;;;;;5100012;28;20550;-60
2023/05/16 09:20:09;;;;;;;3.63;2.57;;;12.20;99.90;;;;;;5099457;28;20513;-60
2023/05/16 09:22:37;;;;;;;5.30;2.83;;;12.70;99.90;;;;;;5099635;28;20459;-60
2023/05/16 09:25:07;;;;;;;5.07;2.20;;;12.40;99.90;;;;;;5098782;28;20456;-60
2023/05/16 09:27:34;;;;;;;4.30;2.27;;;12.20;99.90;;;;;;5099507;28;20449;-59
2023/05/16 09:30:02;;;;;;;4.63;2.30;;;12.60;99.90;;;;;;5099604;28;20460;-59
2023/05/16 09:32:31;;;;;;;4.80;2.63;;;12.90;99.90;;;;;;5099445;28;20488;-58
2023/05/16 09:34:58;;;;;;;4.30;2.23;;;12.90;99.90;;;;;;5099281;28;20489;-57
2023/05/16 09:37:25;;;;;;;7.70;2.77;;;13.10;99.90;;;;;;5099654;28;20477;-59
2023/05/16 09:39:54;;;;;;;6.40;2.50;;;13.10;99.90;;;;;;5098982;28;20467;-60
2023/05/16 09:42:25;;;;;;;6.30;2.00;;;12.50;99.90;;;;;;5098936;28;20471;-60
2023/05/16 09:44:55;;;;;;;5.70;2.47;;;11.90;99.90;;;;;;5099417;28;20460;-59
2023/05/16 09:47:22;;;;;;;4.33;2.60;;;12.70;99.90;;;;;;5099294;28;20859;-60
2023/05/16 09:49:53;;;;;;;7.17;2.27;;;12.70;99.90;;;;;;5099026;28;20554;-60
2023/05/16 09:52:20;;;;;;;5.60;2.70;;;12.40;99.90;;;;;;5098755;28;20500;-59
2023/05/16 09:54:48;;;;;;;4.83;2.00;;;12.60;99.90;;;;;;5099013;28;20495;-58
2023/05/16 09:57:18;;;;;;;3.40;2.13;;;12.40;99.90;;;;;;5096420;28;20475;-60
2023/05/16 09:59:47;;;;;;;3.60;2.70;;;12.10;99.90;;;;;;5094180;28;20769;-59
2023/05/16 10:02:14;;;;;;;3.53;2.13;;;12.40;99.90;;;;;;5098266;28;20491;-61
2023/05/16 10:04:42;;;;;;;5.70;2.30;;;12.40;99.90;;;;;;5089990;28;20439;-60
2023/05/16 10:07:09;;;;;;;5.97;2.40;;;12.70;99.90;;;;;;5077393;28;20470;-60
2023/05/16 10:09:39;;;;;;;6.80;2.83;;;12.60;99.90;;;;;;5076475;28;20449;-61
2023/05/16 10:12:10;;;;;;;7.27;2.40;;;12.40;99.90;;;;;;5076593;28;20462;-61
2023/05/16 10:14:39;;;;;;;6.20;2.30;;;12.60;99.90;;;;;;5076579;28;20875;-58
2023/05/16 10:17:09;;;;;;;7.47;2.80;;;13.30;99.90;;;;;;5076829;28;20525;-61
2023/05/16 10:19:38;;;;;;;6.67;2.53;;;14.20;99.90;;;;;;5076793;28;20457;-60
2023/05/16 10:22:07;;;;;;;3.33;1.90;;;14.50;99.90;;;;;;5076587;28;20472;-60
2023/05/16 10:24:43;;;;;;;7.63;2.37;;;14.50;99.90;;;;;;5077285;28;20462;-60
2023/05/16 10:27:11;;;;;;;5.87;2.90;;;14.90;99.90;;;;;;5077872;28;20563;-61
2023/05/16 10:29:40;;;;;;;3.87;2.83;;;14.40;99.90;;;;;;5089528;28;20479;-60
2023/05/16 10:32:10;;;;;;;5.17;2.20;;;13.90;99.90;;;;;;5096339;28;20543;-59
2023/05/16 10:34:38;;;;;;;4.27;2.20;;;13.80;99.90;;;;;;5096621;28;20488;-61
2023/05/16 10:37:06;;;;;;;3.33;2.30;;;14.40;99.90;;;;;;5097117;28;20461;-59
2023/05/16 10:39:34;;;;;;;5.87;2.10;;;14.60;99.90;;;;;;5097030;28;20459;-61
2023/05/16 10:42:01;;;;;;;2.77;1.90;;;15.10;99.90;;;;;;5095907;28;20456;-59
2023/05/16 10:44:32;;;;;;;3.93;1.90;;;14.20;99.90;;;;;;5096404;28;20563;-61
2023/05/16 10:47:00;;;;;;;6.80;2.50;;;13.90;99.90;;;;;;5097780;28;20464;-58
2023/05/16 10:49:30;;;;;;;3.73;2.10;;;13.80;99.90;;;;;;5097940;28;20468;-60
2023/05/16 10:52:06;;;;;;;4.27;2.17;;;13.90;99.90;;;;;;5096381;28;20530;-61
2023/05/16 10:54:38;;;;;;;4.23;2.10;;;13.60;99.90;;;;;;5095315;28;20495;-61
2023/05/16 10:57:10;;;;;;;3.73;2.00;;;13.40;99.90;;;;;;5095618;28;20468;-61
2023/05/16 10:59:42;;;;;;;9.43;2.77;;;13.50;99.90;;;;;;5095196;28;20562;-58
2023/05/16 11:02:23;;;;;;;3.23;2.80;;;13.40;99.90;;;;;;5094622;28;20518;-60
2023/05/16 11:04:54;;;;;;;4.67;2.50;;;14.10;99.90;;;;;;5095278;28;20431;-59
2023/05/16 11:07:24;;;;;;;4.83;2.70;;;14.70;99.90;;;;;;5096405;28;20460;-59
2023/05/16 11:10:04;;;;;;;7.83;3.30;;;15.00;99.90;;;;;;5097119;28;20540;-60
2023/05/16 11:12:45;;;;;;;4.63;2.80;;;15.20;99.90;;;;;;5096514;28;20456;-59
2023/05/16 11:15:20;;;;;;;6.60;2.40;;;15.50;99.90;;;;;;5097571;28;20514;-60
2023/05/16 11:17:48;;;;;;;5.83;2.67;;;15.40;99.90;;;;;;5097242;28;20464;-60
2023/05/16 11:20:31;;;;;;;7.30;2.80;;;14.50;99.90;;;;;;5097259;28;20464;-59
2023/05/16 11:23:24;;;;;;;7.87;3.20;;;14.40;99.90;;;;;;5097529;28;20458;-60
2023/05/16 11:25:54;;;;;;;5.20;2.73;;;14.80;99.90;;;;;;5097371;28;20456;-62
2023/05/16 11:28:22;;;;;;;3.30;2.33;;;14.90;99.90;;;;;;5096858;28;20514;-61
2023/05/16 11:30:51;;;;;;;5.57;2.27;;;14.70;99.90;;;;;;5097405;28;20724;-62
2023/05/16 11:33:19;;;;;;;4.83;2.20;;;14.50;99.90;;;;;;5096645;28;20467;-60
2023/05/16 11:36:03;;;;;;;3.80;2.63;;;14.90;99.90;;;;;;5094795;28;20580;-61
2023/05/16 11:38:31;;;;;;;6.30;2.50;;;14.70;99.90;;;;;;5094569;28;20460;-61
2023/05/16 11:41:06;;;;;;;3.40;2.57;;;15.30;99.90;;;;;;5095377;28;20460;-61
2023/05/16 11:43:41;;;;;;;4.70;2.40;;;16.30;99.90;;;;;;5094970;28;20757;-59
2023/05/16 11:46:11;;;;;;;5.73;2.27;;;16.40;99.90;;;;;;5095807;28;20456;-60
2023/05/16 11:48:39;;;;;;;5.07;2.30;;;16.80;99.90;;;;;;5096385;28;20504;-61
2023/05/16 11:51:07;;;;;;;4.20;2.70;;;16.40;99.90;;;;;;5099055;28;20459;-57
2023/05/16 11:53:35;;;;;;;3.87;2.60;;;16.50;99.90;;;;;;5099354;28;20487;-60
2023/05/16 11:56:02;;;;;;;3.57;2.30;;;16.90;99.90;;;;;;5099330;28;20488;-60
2023/05/16 11:58:30;;;;;;;6.17;3.27;;;16.30;99.90;;;;;;5100347;28;20467;-60
2023/05/16 12:00:57;;;;;;;6.80;3.00;;;16.10;99.90;;;;;;5100585;28;20464;-59
2023/05/16 12:03:24;;;;;;;6.30;2.97;;;16.30;99.90;;;;;;5100267;28;20510;-61
2023/05/16 12:05:53;;;;;;;6.30;2.37;;;16.40;99.90;;;;;;5101008;28;20648;-61
2023/05/16 12:08:23;;;;;;;5.63;2.53;;;15.80;99.90;;;;;;5100962;28;20511;-61
2023/05/16 12:10:52;;;;;;;5.00;2.37;;;16.70;99.90;;;;;;5100932;28;20499;-60
2023/05/16 12:13:21;;;;;;;6.97;3.53;;;17.00;99.90;;;;;;5100803;28;20869;-58
2023/05/16 12:15:48;;;;;;;4.17;2.20;;;15.40;99.90;;;;;;5100069;28;20492;-59
2023/05/16 12:18:16;;;;;;;4.03;3.00;;;15.20;99.90;;;;;;5100691;28;20926;-60
2023/05/16 12:20:44;;;;;;;7.13;2.40;;;15.00;99.90;;;;;;5100903;28;20554;-58
2023/05/16 12:23:12;;;;;;;4.37;2.20;;;14.30;99.90;;;;;;5100946;28;20459;-57
2023/05/16 12:25:45;;;;;;;7.17;2.70;;;14.60;99.90;;;;;;5099697;28;20510;-60
2023/05/16 12:28:14;;;;;;;4.13;2.17;;;15.80;99.90;;;;;;5100509;28;20502;-60
2023/05/16 12:30:42;;;;;;;7.77;2.27;;;16.90;99.90;;;;;;5100725;28;20456;-61
2023/05/16 12:33:11;;;;;;;3.30;2.10;;;17.50;99.90;;;;;;5100750;28;20460;-60
2023/05/16 12:35:39;;;;;;;4.60;1.90;;;17.80;99.90;;;;;;5100230;28;20492;-61
2023/05/16 12:38:07;;;;;;;4.57;2.60;;;18.80;99.90;;;;;;5099654;28;20472;-61
2023/05/16 12:40:36;;;;;;;3.57;2.60;;;17.80;99.90;;;;;;5100222;28;20459;-58
2023/05/16 12:43:13;;;;;;;4.80;2.40;;;17.60;99.90;;;;;;5100776;28;20435;-59
2023/05/16 12:45:40;;;;;;;5.00;2.10;;;17.80;99.90;;;;;;5099818;28;20460;-61
2023/05/16 12:48:12;;;;;;;3.80;2.20;;;18.10;99.90;;;;;;5100062;28;20521;-61
2023/05/16 12:50:40;;;;;;;4.90;2.30;;;17.10;99.90;;;;;;5100123;28;20460;-60
2023/05/16 12:53:14;;;;;;;2.80;1.97;;;18.10;99.90;;;;;;5100524;28;20808;-61
2023/05/16 12:55:43;;;;;;;3.97;2.50;;;18.20;99.90;;;;;;5099838;28;20514;-62